sensor_id;sensor_type;location;lat;lon;timestamp;P1;durP1;ratioP1;P2;durP2;ratioP2
35839;SDS011;35514;50.504;30.500;2023-05-09T00:00:02;11.57;;;4.15;;
35839;SDS011;35514;50.504;30.500;2023-05-09T00:02:31;8.85;;;3.90;;
35839;SDS011;35514;50.504;30.500;2023-05-09T00:04:59;11.75;;;4.78;;
35839;SDS011;35514;50.504;30.500;2023-05-09T00:07:30;15.05;;;4.40;;
35839;SDS011;35514;50.504;30.500;2023-05-09T00:09:58;10.02;;;4.38;;
35839;SDS011;35514;50.504;30.500;2023-05-09T00:12:26;7.28;;;3.72;;
35839;SDS011;35514;50.504;30.500;2023-05-09T00:14:53;5.55;;;3.65;;
35839;SDS011;35514;50.504;30.500;2023-05-09T00:17:21;7.28;;;3.55;;
35839;SDS011;35514;50.504;30.500;2023-05-09T00:19:50;10.52;;;4.47;;
35839;SDS011;35514;50.504;30.500;2023-05-09T00:22:18;11.73;;;3.70;;
35839;SDS011;35514;50.504;30.500;2023-05-09T00:24:48;8.23;;;3.97;;
35839;SDS011;35514;50.504;30.500;2023-05-09T00:27:15;7.45;;;3.92;;
35839;SDS011;35514;50.504;30.500;2023-05-09T00:29:43;9.90;;;4.05;;
35839;SDS011;35514;50.504;30.500;2023-05-09T00:32:10;10.15;;;3.85;;
35839;SDS011;35514;50.504;30.500;2023-05-09T00:34:38;6.68;;;3.60;;
35839;SDS011;35514;50.504;30.500;2023-05-09T00:37:06;8.60;;;4.03;;
35839;SDS011;35514;50.504;30.500;2023-05-09T00:39:34;8.63;;;4.25;;
35839;SDS011;35514;50.504;30.500;2023-05-09T00:42:03;8.52;;;3.97;;
35839;SDS011;35514;50.504;30.500;2023-05-09T00:44:30;6.22;;;3.60;;
35839;SDS011;35514;50.504;30.500;2023-05-09T00:46:58;7.43;;;3.58;;
35839;SDS011;35514;50.504;30.500;2023-05-09T00:49:25;9.43;;;3.88;;
35839;SDS011;35514;50.504;30.500;2023-05-09T00:51:53;10.70;;;3.67;;
35839;SDS011;35514;50.504;30.500;2023-05-09T00:54:20;11.25;;;3.83;;
35839;SDS011;35514;50.504;30.500;2023-05-09T00:56:48;9.65;;;3.95;;
35839;SDS011;35514;50.504;30.500;2023-05-09T00:59:17;9.63;;;3.83;;
35839;SDS011;35514;50.504;30.500;2023-05-09T01:01:45;7.45;;;3.88;;
35839;SDS011;35514;50.504;30.500;2023-05-09T01:04:12;16.02;;;3.95;;
35839;SDS011;35514;50.504;30.500;2023-05-09T01:06:42;11.93;;;3.22;;
35839;SDS011;35514;50.504;30.500;2023-05-09T01:09:13;8.10;;;4.05;;
35839;SDS011;35514;50.504;30.500;2023-05-09T01:11:44;6.28;;;3.20;;
35839;SDS011;35514;50.504;30.500;2023-05-09T01:14:17;10.32;;;3.50;;
35839;SDS011;35514;50.504;30.500;2023-05-09T01:16:52;10.23;;;3.92;;
35839;SDS011;35514;50.504;30.500;2023-05-09T01:19:26;6.82;;;3.92;;
35839;SDS011;35514;50.504;30.500;2023-05-09T01:21:57;9.73;;;5.28;;
35839;SDS011;35514;50.504;30.500;2023-05-09T01:24:32;6.75;;;3.58;;
35839;SDS011;35514;50.504;30.500;2023-05-09T01:27:05;6.25;;;3.53;;
35839;SDS011;35514;50.504;30.500;2023-05-09T01:29:38;10.68;;;3.70;;
35839;SDS011;35514;50.504;30.500;2023-05-09T01:32:09;10.68;;;3.75;;
35839;SDS011;35514;50.504;30.500;2023-05-09T01:34:37;8.30;;;3.70;;
35839;SDS011;35514;50.504;30.500;2023-05-09T01:37:05;9.63;;;3.78;;
35839;SDS011;35514;50.504;30.500;2023-05-09T01:39:33;6.78;;;3.58;;
35839;SDS011;35514;50.504;30.500;2023-05-09T01:42:05;6.90;;;3.38;;
35839;SDS011;35514;50.504;30.500;2023-05-09T01:44:34;7.97;;;3.50;;
35839;SDS011;35514;50.504;30.500;2023-05-09T01:47:05;12.80;;;4.03;;
35839;SDS011;35514;50.504;30.500;2023-05-09T01:49:33;12.27;;;4.13;;
35839;SDS011;35514;50.504;30.500;2023-05-09T01:52:02;12.48;;;4.65;;
35839;SDS011;35514;50.504;30.500;2023-05-09T01:54:30;8.13;;;4.38;;
35839;SDS011;35514;50.504;30.500;2023-05-09T01:56:58;8.23;;;3.90;;
35839;SDS011;35514;50.504;30.500;2023-05-09T01:59:27;12.02;;;4.03;;
35839;SDS011;35514;50.504;30.500;2023-05-09T02:01:56;6.25;;;3.65;;
35839;SDS011;35514;50.504;30.500;2023-05-09T02:04:25;7.13;;;4.00;;
35839;SDS011;35514;50.504;30.500;2023-05-09T02:06:54;8.32;;;3.75;;
35839;SDS011;35514;50.504;30.500;2023-05-09T02:09:22;6.90;;;3.42;;
35839;SDS011;35514;50.504;30.500;2023-05-09T02:11:49;5.65;;;3.25;;
35839;SDS011;35514;50.504;30.500;2023-05-09T02:14:17;9.82;;;4.32;;
35839;SDS011;35514;50.504;30.500;2023-05-09T02:16:45;11.57;;;3.78;;
35839;SDS011;35514;50.504;30.500;2023-05-09T02:19:13;11.82;;;3.50;;
35839;SDS011;35514;50.504;30.500;2023-05-09T02:21:43;8.45;;;3.22;;
35839;SDS011;35514;50.504;30.500;2023-05-09T02:24:11;14.27;;;3.28;;
35839;SDS011;35514;50.504;30.500;2023-05-09T02:26:39;7.72;;;4.53;;
35839;SDS011;35514;50.504;30.500;2023-05-09T02:29:06;9.82;;;4.07;;
35839;SDS011;35514;50.504;30.500;2023-05-09T02:31:34;7.07;;;3.97;;
35839;SDS011;35514;50.504;30.500;2023-05-09T02:34:02;8.98;;;3.65;;
35839;SDS011;35514;50.504;30.500;2023-05-09T02:36:31;10.85;;;4.75;;
35839;SDS011;35514;50.504;30.500;2023-05-09T02:39:00;8.52;;;4.43;;
35839;SDS011;35514;50.504;30.500;2023-05-09T02:41:28;10.57;;;3.55;;
35839;SDS011;35514;50.504;30.500;2023-05-09T02:43:56;7.03;;;3.17;;
35839;SDS011;35514;50.504;30.500;2023-05-09T02:46:24;12.95;;;3.90;;
35839;SDS011;35514;50.504;30.500;2023-05-09T02:48:51;11.65;;;3.83;;
35839;SDS011;35514;50.504;30.500;2023-05-09T02:51:19;8.93;;;3.50;;
35839;SDS011;35514;50.504;30.500;2023-05-09T02:53:46;6.45;;;3.47;;
35839;SDS011;35514;50.504;30.500;2023-05-09T02:56:15;11.68;;;3.50;;
35839;SDS011;35514;50.504;30.500;2023-05-09T02:58:43;5.47;;;3.28;;
35839;SDS011;35514;50.504;30.500;2023-05-09T03:01:16;9.52;;;3.58;;
35839;SDS011;35514;50.504;30.500;2023-05-09T03:03:45;8.23;;;3.70;;
35839;SDS011;35514;50.504;30.500;2023-05-09T03:06:13;8.85;;;3.90;;
35839;SDS011;35514;50.504;30.500;2023-05-09T03:08:41;7.68;;;3.88;;
35839;SDS011;35514;50.504;30.500;2023-05-09T03:11:08;7.28;;;3.10;;
35839;SDS011;35514;50.504;30.500;2023-05-09T03:13:37;7.38;;;3.92;;
35839;SDS011;35514;50.504;30.500;2023-05-09T03:16:05;7.18;;;3.25;;
35839;SDS011;35514;50.504;30.500;2023-05-09T03:18:33;11.18;;;4.00;;
35839;SDS011;35514;50.504;30.500;2023-05-09T03:21:00;10.95;;;3.53;;
35839;SDS011;35514;50.504;30.500;2023-05-09T03:23:28;8.98;;;3.97;;
35839;SDS011;35514;50.504;30.500;2023-05-09T03:25:56;6.35;;;3.70;;
35839;SDS011;35514;50.504;30.500;2023-05-09T03:28:23;9.95;;;3.63;;
35839;SDS011;35514;50.504;30.500;2023-05-09T03:30:52;5.82;;;3.95;;
35839;SDS011;35514;50.504;30.500;2023-05-09T03:33:20;12.23;;;4.25;;
35839;SDS011;35514;50.504;30.500;2023-05-09T03:35:47;8.13;;;3.35;;
35839;SDS011;35514;50.504;30.500;2023-05-09T03:38:15;32.70;;;5.03;;
35839;SDS011;35514;50.504;30.500;2023-05-09T03:40:42;10.35;;;4.32;;
35839;SDS011;35514;50.504;30.500;2023-05-09T03:43:10;7.22;;;3.88;;
35839;SDS011;35514;50.504;30.500;2023-05-09T03:45:38;10.60;;;3.20;;
35839;SDS011;35514;50.504;30.500;2023-05-09T03:48:07;6.75;;;3.55;;
35839;SDS011;35514;50.504;30.500;2023-05-09T03:50:35;5.65;;;3.35;;
35839;SDS011;35514;50.504;30.500;2023-05-09T03:53:02;7.88;;;3.65;;
35839;SDS011;35514;50.504;30.500;2023-05-09T03:55:30;8.55;;;3.85;;
35839;SDS011;35514;50.504;30.500;2023-05-09T03:57:57;6.63;;;3.70;;
35839;SDS011;35514;50.504;30.500;2023-05-09T04:00:25;5.93;;;3.10;;
35839;SDS011;35514;50.504;30.500;2023-05-09T04:02:53;10.18;;;3.65;;
35839;SDS011;35514;50.504;30.500;2023-05-09T04:05:22;8.63;;;3.70;;
35839;SDS011;35514;50.504;30.500;2023-05-09T04:07:49;10.38;;;3.67;;
35839;SDS011;35514;50.504;30.500;2023-05-09T04:10:17;12.07;;;3.80;;
35839;SDS011;35514;50.504;30.500;2023-05-09T04:12:44;9.52;;;3.85;;
35839;SDS011;35514;50.504;30.500;2023-05-09T04:15:12;9.48;;;3.28;;
35839;SDS011;35514;50.504;30.500;2023-05-09T04:17:40;7.18;;;2.97;;
35839;SDS011;35514;50.504;30.500;2023-05-09T04:20:08;6.93;;;2.97;;
35839;SDS011;35514;50.504;30.500;2023-05-09T04:22:37;6.97;;;3.45;;
35839;SDS011;35514;50.504;30.500;2023-05-09T04:25:05;6.32;;;3.13;;
35839;SDS011;35514;50.504;30.500;2023-05-09T04:27:37;4.93;;;3.13;;
35839;SDS011;35514;50.504;30.500;2023-05-09T04:30:05;8.70;;;3.22;;
35839;SDS011;35514;50.504;30.500;2023-05-09T04:32:33;5.65;;;3.17;;
35839;SDS011;35514;50.504;30.500;2023-05-09T04:35:02;8.20;;;3.22;;
35839;SDS011;35514;50.504;30.500;2023-05-09T04:37:30;9.18;;;3.33;;
35839;SDS011;35514;50.504;30.500;2023-05-09T04:39:59;9.38;;;3.60;;
35839;SDS011;35514;50.504;30.500;2023-05-09T04:42:26;8.07;;;3.92;;
35839;SDS011;35514;50.504;30.500;2023-05-09T04:44:54;5.80;;;3.00;;
35839;SDS011;35514;50.504;30.500;2023-05-09T04:47:22;7.10;;;2.97;;
35839;SDS011;35514;50.504;30.500;2023-05-09T04:49:50;8.52;;;3.25;;
35839;SDS011;35514;50.504;30.500;2023-05-09T04:52:17;9.25;;;3.28;;
35839;SDS011;35514;50.504;30.500;2023-05-09T04:54:45;9.10;;;2.85;;
35839;SDS011;35514;50.504;30.500;2023-05-09T04:57:14;9.02;;;3.30;;
35839;SDS011;35514;50.504;30.500;2023-05-09T04:59:44;5.28;;;2.50;;
35839;SDS011;35514;50.504;30.500;2023-05-09T05:02:12;8.30;;;2.80;;
35839;SDS011;35514;50.504;30.500;2023-05-09T05:04:39;12.10;;;5.38;;
35839;SDS011;35514;50.504;30.500;2023-05-09T05:07:07;7.07;;;2.95;;
35839;SDS011;35514;50.504;30.500;2023-05-09T05:09:34;5.30;;;2.83;;
35839;SDS011;35514;50.504;30.500;2023-05-09T05:12:02;13.55;;;3.10;;
35839;SDS011;35514;50.504;30.500;2023-05-09T05:14:36;5.13;;;2.47;;
35839;SDS011;35514;50.504;30.500;2023-05-09T05:17:03;5.45;;;2.65;;
35839;SDS011;35514;50.504;30.500;2023-05-09T05:19:31;5.53;;;2.60;;
35839;SDS011;35514;50.504;30.500;2023-05-09T05:21:59;6.93;;;2.90;;
35839;SDS011;35514;50.504;30.500;2023-05-09T05:24:26;9.18;;;3.03;;
35839;SDS011;35514;50.504;30.500;2023-05-09T05:26:54;10.20;;;2.80;;
35839;SDS011;35514;50.504;30.500;2023-05-09T05:29:21;10.00;;;2.88;;
35839;SDS011;35514;50.504;30.500;2023-05-09T05:31:50;6.07;;;2.40;;
35839;SDS011;35514;50.504;30.500;2023-05-09T05:34:18;9.75;;;2.60;;
35839;SDS011;35514;50.504;30.500;2023-05-09T05:36:46;4.32;;;2.20;;
35839;SDS011;35514;50.504;30.500;2023-05-09T05:39:13;6.80;;;2.72;;
35839;SDS011;35514;50.504;30.500;2023-05-09T05:41:41;9.80;;;2.63;;
35839;SDS011;35514;50.504;30.500;2023-05-09T05:44:08;10.65;;;2.83;;
35839;SDS011;35514;50.504;30.500;2023-05-09T05:46:36;4.88;;;1.85;;
35839;SDS011;35514;50.504;30.500;2023-05-09T05:49:05;11.25;;;2.20;;
35839;SDS011;35514;50.504;30.500;2023-05-09T05:51:32;6.30;;;2.50;;
35839;SDS011;35514;50.504;30.500;2023-05-09T05:54:00;7.43;;;2.75;;
35839;SDS011;35514;50.504;30.500;2023-05-09T05:56:27;7.30;;;2.83;;
35839;SDS011;35514;50.504;30.500;2023-05-09T05:58:55;4.35;;;1.80;;
35839;SDS011;35514;50.504;30.500;2023-05-09T06:01:22;4.70;;;1.92;;
35839;SDS011;35514;50.504;30.500;2023-05-09T06:03:50;8.75;;;2.90;;
35839;SDS011;35514;50.504;30.500;2023-05-09T06:06:21;5.68;;;3.03;;
35839;SDS011;35514;50.504;30.500;2023-05-09T06:08:49;4.30;;;2.10;;
35839;SDS011;35514;50.504;30.500;2023-05-09T06:11:17;6.68;;;2.20;;
35839;SDS011;35514;50.504;30.500;2023-05-09T06:13:44;4.97;;;2.00;;
35839;SDS011;35514;50.504;30.500;2023-05-09T06:16:12;6.47;;;2.03;;
35839;SDS011;35514;50.504;30.500;2023-05-09T06:18:45;3.05;;;2.10;;
35839;SDS011;35514;50.504;30.500;2023-05-09T06:21:13;3.90;;;1.80;;
35839;SDS011;35514;50.504;30.500;2023-05-09T06:23:42;4.63;;;2.00;;
35839;SDS011;35514;50.504;30.500;2023-05-09T06:26:29;5.60;;;2.35;;
35839;SDS011;35514;50.504;30.500;2023-05-09T06:28:57;5.72;;;2.55;;
35839;SDS011;35514;50.504;30.500;2023-05-09T06:31:24;6.32;;;2.60;;
35839;SDS011;35514;50.504;30.500;2023-05-09T06:33:52;5.45;;;1.95;;
35839;SDS011;35514;50.504;30.500;2023-05-09T06:36:20;5.65;;;1.90;;
35839;SDS011;35514;50.504;30.500;2023-05-09T06:38:48;4.25;;;2.25;;
35839;SDS011;35514;50.504;30.500;2023-05-09T06:41:16;4.22;;;1.80;;
35839;SDS011;35514;50.504;30.500;2023-05-09T06:43:43;4.43;;;2.08;;
35839;SDS011;35514;50.504;30.500;2023-05-09T06:46:11;2.28;;;1.50;;
35839;SDS011;35514;50.504;30.500;2023-05-09T06:48:39;4.28;;;1.50;;
35839;SDS011;35514;50.504;30.500;2023-05-09T06:51:06;3.28;;;1.98;;
35839;SDS011;35514;50.504;30.500;2023-05-09T06:53:34;5.00;;;1.90;;
35839;SDS011;35514;50.504;30.500;2023-05-09T06:56:03;7.22;;;1.50;;
35839;SDS011;35514;50.504;30.500;2023-05-09T06:58:31;3.47;;;1.80;;
35839;SDS011;35514;50.504;30.500;2023-05-09T07:00:59;5.32;;;1.50;;
35839;SDS011;35514;50.504;30.500;2023-05-09T07:03:26;3.88;;;1.60;;
35839;SDS011;35514;50.504;30.500;2023-05-09T07:05:54;2.55;;;1.50;;
35839;SDS011;35514;50.504;30.500;2023-05-09T07:08:24;5.45;;;2.42;;
35839;SDS011;35514;50.504;30.500;2023-05-09T07:10:52;2.33;;;1.20;;
35839;SDS011;35514;50.504;30.500;2023-05-09T07:13:21;3.90;;;1.60;;
35839;SDS011;35514;50.504;30.500;2023-05-09T07:15:48;12.57;;;1.38;;
35839;SDS011;35514;50.504;30.500;2023-05-09T07:18:16;2.08;;;1.27;;
35839;SDS011;35514;50.504;30.500;2023-05-09T07:20:43;4.13;;;1.50;;
35839;SDS011;35514;50.504;30.500;2023-05-09T07:23:11;3.55;;;1.00;;
35839;SDS011;35514;50.504;30.500;2023-05-09T07:25:39;4.63;;;1.10;;
35839;SDS011;35514;50.504;30.500;2023-05-09T07:28:06;6.72;;;1.25;;
35839;SDS011;35514;50.504;30.500;2023-05-09T07:30:35;2.17;;;1.23;;
35839;SDS011;35514;50.504;30.500;2023-05-09T07:33:03;3.08;;;1.80;;
35839;SDS011;35514;50.504;30.500;2023-05-09T07:35:32;3.08;;;1.23;;
35839;SDS011;35514;50.504;30.500;2023-05-09T07:37:59;3.78;;;1.42;;
35839;SDS011;35514;50.504;30.500;2023-05-09T07:40:27;5.03;;;1.40;;
35839;SDS011;35514;50.504;30.500;2023-05-09T07:42:54;2.85;;;1.50;;
35839;SDS011;35514;50.504;30.500;2023-05-09T07:45:22;5.95;;;2.00;;
35839;SDS011;35514;50.504;30.500;2023-05-09T07:47:51;22.17;;;2.10;;
35839;SDS011;35514;50.504;30.500;2023-05-09T07:50:18;3.03;;;1.98;;
35839;SDS011;35514;50.504;30.500;2023-05-09T07:52:46;3.67;;;1.65;;
35839;SDS011;35514;50.504;30.500;2023-05-09T07:55:14;2.00;;;1.10;;
35839;SDS011;35514;50.504;30.500;2023-05-09T07:57:42;2.95;;;1.50;;
35839;SDS011;35514;50.504;30.500;2023-05-09T08:00:10;3.03;;;1.40;;
35839;SDS011;35514;50.504;30.500;2023-05-09T08:02:37;7.68;;;1.45;;
35839;SDS011;35514;50.504;30.500;2023-05-09T08:05:07;2.13;;;1.20;;
35839;SDS011;35514;50.504;30.500;2023-05-09T08:07:36;2.60;;;1.55;;
35839;SDS011;35514;50.504;30.500;2023-05-09T08:10:04;1.80;;;1.40;;
35839;SDS011;35514;50.504;30.500;2023-05-09T08:12:33;3.65;;;1.40;;
35839;SDS011;35514;50.504;30.500;2023-05-09T08:15:01;3.85;;;1.52;;
35839;SDS011;35514;50.504;30.500;2023-05-09T08:17:28;1.70;;;1.35;;
35839;SDS011;35514;50.504;30.500;2023-05-09T08:19:56;3.22;;;1.70;;
35839;SDS011;35514;50.504;30.500;2023-05-09T08:22:25;3.60;;;1.65;;
35839;SDS011;35514;50.504;30.500;2023-05-09T08:24:53;2.80;;;1.60;;
35839;SDS011;35514;50.504;30.500;2023-05-09T08:27:21;5.00;;;1.70;;
35839;SDS011;35514;50.504;30.500;2023-05-09T08:29:48;4.82;;;1.55;;
35839;SDS011;35514;50.504;30.500;2023-05-09T08:32:16;2.85;;;2.00;;
35839;SDS011;35514;50.504;30.500;2023-05-09T08:34:45;4.15;;;1.70;;
35839;SDS011;35514;50.504;30.500;2023-05-09T08:37:12;5.10;;;1.45;;
35839;SDS011;35514;50.504;30.500;2023-05-09T08:39:42;5.65;;;1.60;;
35839;SDS011;35514;50.504;30.500;2023-05-09T08:42:09;2.95;;;1.60;;
35839;SDS011;35514;50.504;30.500;2023-05-09T08:44:37;2.03;;;1.20;;
35839;SDS011;35514;50.504;30.500;2023-05-09T08:47:04;2.28;;;1.33;;
35839;SDS011;35514;50.504;30.500;2023-05-09T08:49:32;2.38;;;1.52;;
35839;SDS011;35514;50.504;30.500;2023-05-09T08:52:01;2.22;;;1.40;;
35839;SDS011;35514;50.504;30.500;2023-05-09T08:54:29;1.88;;;1.20;;
35839;SDS011;35514;50.504;30.500;2023-05-09T08:56:58;4.25;;;1.35;;
35839;SDS011;35514;50.504;30.500;2023-05-09T08:59:27;2.65;;;1.42;;
35839;SDS011;35514;50.504;30.500;2023-05-09T09:01:54;3.75;;;1.45;;
35839;SDS011;35514;50.504;30.500;2023-05-09T09:04:22;3.25;;;1.38;;
35839;SDS011;35514;50.504;30.500;2023-05-09T09:06:55;1.38;;;1.15;;
35839;SDS011;35514;50.504;30.500;2023-05-09T09:09:23;2.58;;;1.40;;
35839;SDS011;35514;50.504;30.500;2023-05-09T09:11:51;2.65;;;1.10;;
35839;SDS011;35514;50.504;30.500;2023-05-09T09:14:23;16.65;;;1.80;;
35839;SDS011;35514;50.504;30.500;2023-05-09T09:16:51;7.68;;;1.45;;
35839;SDS011;35514;50.504;30.500;2023-05-09T09:19:21;3.00;;;1.60;;
35839;SDS011;35514;50.504;30.500;2023-05-09T09:21:48;6.10;;;1.35;;
35839;SDS011;35514;50.504;30.500;2023-05-09T09:24:20;5.43;;;1.25;;
35839;SDS011;35514;50.504;30.500;2023-05-09T09:26:48;4.53;;;1.70;;
35839;SDS011;35514;50.504;30.500;2023-05-09T09:29:16;5.57;;;1.70;;
35839;SDS011;35514;50.504;30.500;2023-05-09T09:31:46;2.78;;;1.35;;
35839;SDS011;35514;50.504;30.500;2023-05-09T09:34:18;1.48;;;1.20;;
35839;SDS011;35514;50.504;30.500;2023-05-09T09:36:46;3.35;;;1.38;;
35839;SDS011;35514;50.504;30.500;2023-05-09T09:39:14;3.25;;;1.30;;
35839;SDS011;35514;50.504;30.500;2023-05-09T09:41:42;2.15;;;1.10;;
35839;SDS011;35514;50.504;30.500;2023-05-09T09:44:11;3.45;;;1.48;;
35839;SDS011;35514;50.504;30.500;2023-05-09T09:46:40;2.50;;;1.40;;
35839;SDS011;35514;50.504;30.500;2023-05-09T09:49:10;2.03;;;1.48;;
35839;SDS011;35514;50.504;30.500;2023-05-09T09:51:39;2.20;;;1.30;;
35839;SDS011;35514;50.504;30.500;2023-05-09T09:54:07;8.65;;;1.60;;
35839;SDS011;35514;50.504;30.500;2023-05-09T09:56:38;7.20;;;1.52;;
35839;SDS011;35514;50.504;30.500;2023-05-09T09:59:09;3.20;;;1.35;;
35839;SDS011;35514;50.504;30.500;2023-05-09T10:01:53;2.58;;;1.40;;
35839;SDS011;35514;50.504;30.500;2023-05-09T10:04:23;1.70;;;1.13;;
35839;SDS011;35514;50.504;30.500;2023-05-09T10:06:51;3.83;;;1.30;;
35839;SDS011;35514;50.504;30.500;2023-05-09T10:09:19;2.75;;;1.17;;
35839;SDS011;35514;50.504;30.500;2023-05-09T10:11:48;4.35;;;1.92;;
35839;SDS011;35514;50.504;30.500;2023-05-09T10:14:15;1.65;;;1.20;;
35839;SDS011;35514;50.504;30.500;2023-05-09T10:16:45;2.45;;;1.10;;
35839;SDS011;35514;50.504;30.500;2023-05-09T10:19:14;3.03;;;1.27;;
35839;SDS011;35514;50.504;30.500;2023-05-09T10:21:44;2.03;;;1.40;;
35839;SDS011;35514;50.504;30.500;2023-05-09T10:24:13;5.00;;;1.00;;
35839;SDS011;35514;50.504;30.500;2023-05-09T10:26:42;2.60;;;1.27;;
35839;SDS011;35514;50.504;30.500;2023-05-09T10:29:11;4.50;;;1.63;;
35839;SDS011;35514;50.504;30.500;2023-05-09T10:31:38;1.33;;;1.00;;
35839;SDS011;35514;50.504;30.500;2023-05-09T10:34:09;2.20;;;1.40;;
35839;SDS011;35514;50.504;30.500;2023-05-09T10:36:36;5.55;;;1.52;;
35839;SDS011;35514;50.504;30.500;2023-05-09T10:39:05;3.25;;;1.60;;
35839;SDS011;35514;50.504;30.500;2023-05-09T10:41:33;4.32;;;1.90;;
35839;SDS011;35514;50.504;30.500;2023-05-09T10:44:02;2.10;;;1.38;;
35839;SDS011;35514;50.504;30.500;2023-05-09T10:46:29;4.25;;;1.88;;
35839;SDS011;35514;50.504;30.500;2023-05-09T10:48:57;1.70;;;1.40;;
35839;SDS011;35514;50.504;30.500;2023-05-09T10:51:25;5.72;;;1.98;;
35839;SDS011;35514;50.504;30.500;2023-05-09T10:53:53;4.05;;;1.55;;
35839;SDS011;35514;50.504;30.500;2023-05-09T10:56:24;3.22;;;1.75;;
35839;SDS011;35514;50.504;30.500;2023-05-09T10:58:52;5.50;;;1.60;;
35839;SDS011;35514;50.504;30.500;2023-05-09T11:01:29;6.93;;;1.40;;
35839;SDS011;35514;50.504;30.500;2023-05-09T11:04:00;4.78;;;1.60;;
35839;SDS011;35514;50.504;30.500;2023-05-09T11:06:42;4.05;;;1.48;;
35839;SDS011;35514;50.504;30.500;2023-05-09T11:09:30;4.75;;;1.65;;
35839;SDS011;35514;50.504;30.500;2023-05-09T11:12:06;5.03;;;1.45;;
35839;SDS011;35514;50.504;30.500;2023-05-09T11:14:38;6.38;;;1.95;;
35839;SDS011;35514;50.504;30.500;2023-05-09T11:17:07;3.05;;;1.70;;
35839;SDS011;35514;50.504;30.500;2023-05-09T11:19:36;5.70;;;1.60;;
35839;SDS011;35514;50.504;30.500;2023-05-09T11:22:10;1.92;;;1.20;;
35839;SDS011;35514;50.504;30.500;2023-05-09T11:24:39;6.40;;;1.40;;
35839;SDS011;35514;50.504;30.500;2023-05-09T11:27:14;1.70;;;1.13;;
35839;SDS011;35514;50.504;30.500;2023-05-09T11:29:42;2.72;;;1.27;;
35839;SDS011;35514;50.504;30.500;2023-05-09T11:32:12;11.80;;;1.58;;
35839;SDS011;35514;50.504;30.500;2023-05-09T11:34:41;2.58;;;1.58;;
35839;SDS011;35514;50.504;30.500;2023-05-09T11:37:09;2.65;;;1.27;;
35839;SDS011;35514;50.504;30.500;2023-05-09T11:42:21;2.47;;;1.58;;
35839;SDS011;35514;50.504;30.500;2023-05-09T11:44:49;5.63;;;1.85;;
35839;SDS011;35514;50.504;30.500;2023-05-09T11:47:18;2.25;;;1.20;;
35839;SDS011;35514;50.504;30.500;2023-05-09T11:49:46;2.25;;;1.17;;
35839;SDS011;35514;50.504;30.500;2023-05-09T11:52:14;2.90;;;1.45;;
35839;SDS011;35514;50.504;30.500;2023-05-09T11:54:42;2.08;;;1.30;;
35839;SDS011;35514;50.504;30.500;2023-05-09T11:57:10;2.30;;;1.30;;
35839;SDS011;35514;50.504;30.500;2023-05-09T11:59:43;5.90;;;1.30;;
35839;SDS011;35514;50.504;30.500;2023-05-09T12:02:11;3.33;;;1.60;;
35839;SDS011;35514;50.504;30.500;2023-05-09T12:04:39;2.88;;;1.40;;
35839;SDS011;35514;50.504;30.500;2023-05-09T12:07:06;3.35;;;1.60;;
35839;SDS011;35514;50.504;30.500;2023-05-09T12:09:37;2.88;;;1.40;;
35839;SDS011;35514;50.504;30.500;2023-05-09T12:12:08;3.40;;;1.60;;
35839;SDS011;35514;50.504;30.500;2023-05-09T12:14:38;2.10;;;1.23;;
35839;SDS011;35514;50.504;30.500;2023-05-09T12:17:07;3.42;;;1.17;;
35839;SDS011;35514;50.504;30.500;2023-05-09T12:19:35;2.58;;;1.80;;
35839;SDS011;35514;50.504;30.500;2023-05-09T12:22:03;2.63;;;1.33;;
35839;SDS011;35514;50.504;30.500;2023-05-09T12:24:34;5.20;;;1.75;;
35839;SDS011;35514;50.504;30.500;2023-05-09T12:27:02;3.90;;;1.70;;
35839;SDS011;35514;50.504;30.500;2023-05-09T12:29:30;3.70;;;1.73;;
35839;SDS011;35514;50.504;30.500;2023-05-09T12:31:57;6.63;;;1.42;;
35839;SDS011;35514;50.504;30.500;2023-05-09T12:34:27;3.80;;;1.70;;
35839;SDS011;35514;50.504;30.500;2023-05-09T12:36:55;3.33;;;1.40;;
35839;SDS011;35514;50.504;30.500;2023-05-09T12:39:25;2.58;;;1.42;;
35839;SDS011;35514;50.504;30.500;2023-05-09T12:41:53;4.03;;;1.25;;
35839;SDS011;35514;50.504;30.500;2023-05-09T12:46:55;3.45;;;1.70;;
35839;SDS011;35514;50.504;30.500;2023-05-09T12:49:23;8.65;;;1.55;;
35839;SDS011;35514;50.504;30.500;2023-05-09T12:51:53;7.00;;;1.33;;
35839;SDS011;35514;50.504;30.500;2023-05-09T12:54:21;5.53;;;1.77;;
35839;SDS011;35514;50.504;30.500;2023-05-09T12:56:49;2.03;;;1.35;;
35839;SDS011;35514;50.504;30.500;2023-05-09T12:59:19;4.47;;;1.55;;
35839;SDS011;35514;50.504;30.500;2023-05-09T13:01:50;6.07;;;1.50;;
35839;SDS011;35514;50.504;30.500;2023-05-09T13:04:19;6.50;;;1.25;;
35839;SDS011;35514;50.504;30.500;2023-05-09T13:06:47;2.45;;;1.52;;
35839;SDS011;35514;50.504;30.500;2023-05-09T13:09:17;3.08;;;1.30;;
35839;SDS011;35514;50.504;30.500;2023-05-09T13:11:45;6.45;;;1.20;;
35839;SDS011;35514;50.504;30.500;2023-05-09T13:14:14;3.33;;;1.55;;
35839;SDS011;35514;50.504;30.500;2023-05-09T13:16:42;7.43;;;1.50;;
35839;SDS011;35514;50.504;30.500;2023-05-09T13:19:09;6.38;;;1.25;;
35839;SDS011;35514;50.504;30.500;2023-05-09T13:21:37;5.07;;;1.30;;
35839;SDS011;35514;50.504;30.500;2023-05-09T13:24:04;6.22;;;1.30;;
35839;SDS011;35514;50.504;30.500;2023-05-09T13:26:33;1.73;;;1.20;;
35839;SDS011;35514;50.504;30.500;2023-05-09T13:29:01;5.63;;;1.40;;
35839;SDS011;35514;50.504;30.500;2023-05-09T13:31:29;3.38;;;1.58;;
35839;SDS011;35514;50.504;30.500;2023-05-09T13:33:56;6.57;;;1.25;;
35839;SDS011;35514;50.504;30.500;2023-05-09T13:36:24;1.92;;;1.13;;
35839;SDS011;35514;50.504;30.500;2023-05-09T13:38:51;5.20;;;1.38;;
35839;SDS011;35514;50.504;30.500;2023-05-09T13:41:19;2.08;;;1.17;;
35839;SDS011;35514;50.504;30.500;2023-05-09T13:43:50;2.90;;;1.73;;
35839;SDS011;35514;50.504;30.500;2023-05-09T13:46:20;5.35;;;1.80;;
35839;SDS011;35514;50.504;30.500;2023-05-09T13:48:48;6.95;;;1.30;;
35839;SDS011;35514;50.504;30.500;2023-05-09T13:51:17;7.13;;;1.45;;
35839;SDS011;35514;50.504;30.500;2023-05-09T13:53:46;2.92;;;1.35;;
35839;SDS011;35514;50.504;30.500;2023-05-09T13:56:14;2.17;;;1.15;;
35839;SDS011;35514;50.504;30.500;2023-05-09T13:58:41;5.75;;;1.63;;
35839;SDS011;35514;50.504;30.500;2023-05-09T14:01:11;2.60;;;1.48;;
35839;SDS011;35514;50.504;30.500;2023-05-09T14:03:38;3.67;;;1.38;;
35839;SDS011;35514;50.504;30.500;2023-05-09T14:06:06;5.97;;;1.45;;
35839;SDS011;35514;50.504;30.500;2023-05-09T14:08:35;4.60;;;1.65;;
35839;SDS011;35514;50.504;30.500;2023-05-09T14:11:04;5.65;;;1.60;;
35839;SDS011;35514;50.504;30.500;2023-05-09T14:13:37;2.17;;;1.08;;
35839;SDS011;35514;50.504;30.500;2023-05-09T14:16:05;5.15;;;1.42;;
35839;SDS011;35514;50.504;30.500;2023-05-09T14:18:36;3.65;;;1.30;;
35839;SDS011;35514;50.504;30.500;2023-05-09T14:21:04;3.20;;;1.23;;
35839;SDS011;35514;50.504;30.500;2023-05-09T14:23:56;6.88;;;1.65;;
35839;SDS011;35514;50.504;30.500;2023-05-09T14:26:24;3.63;;;1.13;;
35839;SDS011;35514;50.504;30.500;2023-05-09T14:28:52;8.15;;;1.38;;
35839;SDS011;35514;50.504;30.500;2023-05-09T14:31:20;4.63;;;1.65;;
35839;SDS011;35514;50.504;30.500;2023-05-09T14:33:49;4.32;;;1.45;;
35839;SDS011;35514;50.504;30.500;2023-05-09T14:36:18;3.83;;;1.60;;
35839;SDS011;35514;50.504;30.500;2023-05-09T14:38:46;1.85;;;1.02;;
35839;SDS011;35514;50.504;30.500;2023-05-09T14:41:13;3.55;;;0.90;;
35839;SDS011;35514;50.504;30.500;2023-05-09T14:43:41;2.50;;;1.13;;
35839;SDS011;35514;50.504;30.500;2023-05-09T14:46:09;3.85;;;1.20;;